Long Point, Illinois
Current Conditions -  °F | °C
As of 12:15 AM on Sunday 23 Nov 2014 (Local Time) from KPNT Reporting Station
Overcast Overcast  
Wind Chill: 51°   Ceiling: 3300
Heat Index: 51°   Visibility: 10mi
Dew Point: 49°   Wind: 18mph
Humidity: 93%   Direction: 190°S
Pressure: 29.85"   Gusts: 24mph
Location:  41°N, 88.89°W
Report Text: KPNT 230615Z AUTO 19016G21KT 10SM SCT011 BKN033 OVC039 11/10 A2985 RMK AO2 T01080097
Loading
Personal Weather Stations






























Interactive Weather Map New forecast layout! Learn more

10-Day Weather Forecast

Advertisements
Track Severe Weather on mobile